Terminal Aerodrome Forecast
Issued by NWS Charleston, WV

Current Version | Previous Version | Graphics & Text | Print | Product List | Glossary On
Versions: 1 2 3 4 5 6 7 8 9 10 11 12 13 14 15 16 17 18
000
FTUS41 KRLX 281700
TAFHTS
TAF
KHTS 281738Z 2818/2918 35008KT P6SM SCT040
     FM282200 32006KT P6SM FEW150
     FM290400 00000KT P6SM SKC
     FM291700 19006KT P6SM BKN250=

USA.gov is the U.S. government's official web portal to all federal, state and local government web resources and services.